Terminal Aerodrome Forecast
Issued by NWS

Home | Current Version | Previous Version | Text Only | Print | Product List | Glossary On
Versions: 1 2 3 4 5 6 7 8 9 10 11 12 13 14 15 16
000
FTUS43 KILX 021732
TAFDEC
TAF
KDEC 021732Z 0218/0318 04011KT P6SM SCT025 BKN200
      TEMPO 0218/0220 BKN025
     FM022000 04009KT P6SM SCT035 BKN200
      TEMPO 0220/0223 BKN030
     FM030000 03007KT P6SM SCT040 BKN120
     FM030300 02005KT P6SM BKN030
     FM031500 03007KT P6SM SCT025 BKN040=

USA.gov is the U.S. government's official web portal to all federal, state and local government web resources and services.